createdAt,value
2018-09-17T00:02:00.666Z,54.18
2018-09-17T00:04:29.870Z,54.32
2018-09-17T00:06:58.829Z,53.70
2018-09-17T00:09:28.067Z,54.66
2018-09-17T00:11:57.338Z,55.32
2018-09-17T00:14:26.345Z,54.85
2018-09-17T00:16:55.361Z,54.51
2018-09-17T00:19:24.553Z,55.40
2018-09-17T00:21:53.534Z,55.40
2018-09-17T00:24:22.666Z,55.77
2018-09-17T00:26:51.768Z,56.29
2018-09-17T00:29:20.926Z,56.40
2018-09-17T00:31:49.893Z,56.23
2018-09-17T00:34:19.089Z,55.93
2018-09-17T00:36:48.054Z,56.20
2018-09-17T00:39:17.588Z,56.12
2018-09-17T00:41:46.584Z,56.19
2018-09-17T00:44:15.716Z,56.13
2018-09-17T00:46:45.108Z,55.62
2018-09-17T00:49:14.099Z,55.72
2018-09-17T00:51:43.387Z,56.02
2018-09-17T00:54:12.392Z,55.18
2018-09-17T00:56:41.435Z,56.14
2018-09-17T00:59:10.403Z,55.60
2018-09-17T01:01:39.919Z,56.46
2018-09-17T01:04:09.036Z,56.30
2018-09-17T01:06:38.014Z,55.92
2018-09-17T01:09:07.850Z,57.12
2018-09-17T01:11:37.065Z,57.19
2018-09-17T01:14:06.350Z,56.67
2018-09-17T01:16:35.302Z,56.08
2018-09-17T01:19:04.494Z,56.57
2018-09-17T01:21:33.675Z,57.33
2018-09-17T01:24:02.893Z,57.34
2018-09-17T01:26:31.885Z,56.45
2018-09-17T01:29:01.078Z,57.12
2018-09-17T01:31:30.210Z,56.13
2018-09-17T01:33:59.208Z,56.40
2018-09-17T01:36:28.265Z,57.49
2018-09-17T01:38:57.446Z,58.40
2018-09-17T01:41:26.698Z,56.95
2018-09-17T01:43:56.116Z,59.28
2018-09-17T01:46:25.299Z,57.75
2018-09-17T01:48:54.756Z,58.52
2018-09-17T01:51:24.156Z,57.69
2018-09-17T01:53:53.351Z,57.42
2018-09-17T01:56:22.742Z,57.39
2018-09-17T01:58:51.918Z,57.16
2018-09-17T02:01:20.875Z,57.90
2018-09-17T02:03:49.873Z,57.88
2018-09-17T02:06:19.085Z,58.01
2018-09-17T02:08:48.283Z,57.12
2018-09-17T02:11:17.386Z,58.27
2018-09-17T02:13:46.707Z,58.02
2018-09-17T02:16:15.936Z,57.97
2018-09-17T02:18:45.186Z,57.96
2018-09-17T02:21:14.326Z,57.88
2018-09-17T02:23:43.490Z,58.48
2018-09-17T02:26:12.675Z,58.25
2018-09-17T02:28:41.666Z,57.54
2018-09-17T02:31:10.663Z,57.71
2018-09-17T02:33:39.649Z,59.43
2018-09-17T02:36:08.611Z,59.68
2018-09-17T02:38:37.583Z,60.29
2018-09-17T02:41:06.558Z,59.47
2018-09-17T02:43:35.530Z,59.15
2018-09-17T02:46:04.718Z,60.01
2018-09-17T02:48:33.742Z,61.05
2018-09-17T02:51:02.707Z,58.93
2018-09-17T02:53:31.765Z,60.28
2018-09-17T02:56:00.719Z,60.56
2018-09-17T02:58:29.704Z,60.65
2018-09-17T03:00:58.724Z,60.76
2018-09-17T03:03:27.728Z,59.36
2018-09-17T03:05:57.419Z,60.85
2018-09-17T03:08:26.404Z,60.76
2018-09-17T03:10:55.393Z,60.32
2018-09-17T03:13:24.938Z,59.84
2018-09-17T03:15:55.671Z,58.92
2018-09-17T03:18:41.911Z,59.19
2018-09-17T03:21:10.955Z,59.13
2018-09-17T03:23:40.185Z,59.74
2018-09-17T03:26:09.163Z,60.11
2018-09-17T03:28:38.849Z,59.71
2018-09-17T03:31:07.822Z,60.14
2018-09-17T03:33:37.205Z,60.45
2018-09-17T03:36:06.817Z,60.64
2018-09-17T03:38:42.130Z,59.77
2018-09-17T03:41:11.776Z,60.46
2018-09-17T03:43:42.143Z,60.93
2018-09-17T03:46:11.069Z,59.72
2018-09-17T03:48:40.854Z,60.62
2018-09-17T03:51:10.388Z,59.98
2018-09-17T03:53:39.896Z,59.63
2018-09-17T03:56:08.893Z,59.84
2018-09-17T03:58:37.917Z,59.85
2018-09-17T04:01:07.632Z,60.78
2018-09-17T04:03:36.845Z,60.63
2018-09-17T04:06:05.817Z,60.08
2018-09-17T04:08:35.057Z,59.00
2018-09-17T04:11:04.194Z,60.61
2018-09-17T04:13:33.439Z,60.24
2018-09-17T04:16:02.705Z,59.28
2018-09-17T04:18:31.889Z,59.29
2018-09-17T04:21:00.911Z,59.94
2018-09-17T04:23:33.778Z,60.64
2018-09-17T04:26:03.801Z,60.14
2018-09-17T04:28:33.168Z,60.90
2018-09-17T04:31:02.166Z,60.46
2018-09-17T04:33:33.647Z,60.85
2018-09-17T04:36:02.725Z,60.48
2018-09-17T04:38:31.720Z,59.66
2018-09-17T04:41:00.718Z,59.39
2018-09-17T04:43:30.033Z,59.94
2018-09-17T04:45:59.176Z,59.90
2018-09-17T04:48:28.444Z,60.46
2018-09-17T04:50:57.477Z,60.78
2018-09-17T04:53:26.457Z,59.25
2018-09-17T04:55:56.134Z,59.24
2018-09-17T04:58:25.307Z,59.92
2018-09-17T05:00:54.476Z,60.69
2018-09-17T05:03:23.456Z,59.09
2018-09-17T05:05:52.455Z,59.11
2018-09-17T05:08:22.017Z,60.12
2018-09-17T05:10:51.410Z,59.21
2018-09-17T05:13:20.439Z,60.08
2018-09-17T05:15:49.447Z,59.79
2018-09-17T05:18:18.440Z,59.43
2018-09-17T05:20:47.511Z,59.64
2018-09-17T05:23:16.459Z,64.53
2018-09-17T05:25:45.643Z,62.66
2018-09-17T05:28:14.903Z,59.97
2018-09-17T05:30:43.929Z,59.34
2018-09-17T05:33:12.959Z,59.90
2018-09-17T05:35:42.020Z,59.44
2018-09-17T05:38:11.066Z,58.54
2018-09-17T05:40:40.067Z,58.81
2018-09-17T05:43:09.193Z,58.17
2018-09-17T05:45:38.453Z,57.73
2018-09-17T05:48:07.675Z,58.13
2018-09-17T05:50:36.908Z,57.52
2018-09-17T05:53:06.120Z,57.40
2018-09-17T05:55:35.382Z,57.29
2018-09-17T05:58:04.354Z,57.51
2018-09-17T06:00:33.861Z,56.59
2018-09-17T06:03:02.928Z,56.12
2018-09-17T06:05:31.994Z,56.18
2018-09-17T06:08:01.018Z,59.01
2018-09-17T06:10:30.286Z,58.16
2018-09-17T06:12:59.342Z,56.31
2018-09-17T06:15:28.643Z,55.45
2018-09-17T06:17:57.975Z,55.62
2018-09-17T06:20:28.467Z,54.08
2018-09-17T06:22:57.490Z,54.32
2018-09-17T06:25:26.968Z,55.99
2018-09-17T06:27:56.182Z,55.05
2018-09-17T06:30:25.159Z,53.83
2018-09-17T06:32:54.160Z,53.91
2018-09-17T06:35:23.152Z,54.18
2018-09-17T06:37:52.162Z,53.91
2018-09-17T06:40:21.383Z,55.08
2018-09-17T06:42:50.437Z,55.32
2018-09-17T06:45:19.435Z,54.21
2018-09-17T06:47:48.545Z,54.41
2018-09-17T06:50:17.776Z,53.81
2018-09-17T06:52:46.750Z,53.56
2018-09-17T06:55:16.184Z,53.22
2018-09-17T06:57:45.276Z,52.56
2018-09-17T07:00:14.334Z,52.55
2018-09-17T07:02:43.534Z,52.34
2018-09-17T07:05:12.809Z,52.08
2018-09-17T07:07:41.781Z,51.54
2018-09-17T07:10:11.592Z,50.45
2018-09-17T07:12:40.590Z,49.70
2018-09-17T07:15:09.724Z,49.98
2018-09-17T07:17:38.917Z,49.90
2018-09-17T07:20:07.922Z,49.78
2018-09-17T07:22:36.937Z,49.12
2018-09-17T07:25:05.944Z,48.36
2018-09-17T07:27:34.993Z,48.15
2018-09-17T07:30:04.088Z,47.13
2018-09-17T07:32:33.418Z,47.33
2018-09-17T07:35:02.424Z,47.28
2018-09-17T07:37:31.419Z,48.14
2018-09-17T07:40:00.409Z,47.55
2018-09-17T07:42:29.593Z,47.78
2018-09-17T07:44:58.597Z,47.38
2018-09-17T07:47:27.972Z,46.85
2018-09-17T07:49:56.996Z,46.50
2018-09-17T07:52:26.253Z,45.90
2018-09-17T07:54:55.463Z,46.41
2018-09-17T07:57:24.474Z,45.43
2018-09-17T07:59:53.634Z,45.92
2018-09-17T08:02:24.597Z,46.65
2018-09-17T08:04:53.673Z,46.18
2018-09-17T08:07:22.712Z,45.79
2018-09-17T08:09:51.869Z,46.09
2018-09-17T08:12:20.935Z,45.42
2018-09-17T08:14:49.991Z,45.64
2018-09-17T08:17:19.524Z,45.09
2018-09-17T08:19:49.619Z,44.75
2018-09-17T08:22:18.731Z,45.84
2018-09-17T08:24:47.741Z,44.93
2018-09-17T08:27:16.735Z,43.91
2018-09-17T08:29:46.160Z,44.34
2018-09-17T08:32:15.143Z,44.44
2018-09-17T08:34:44.123Z,44.55
2018-09-17T08:37:13.335Z,43.97
2018-09-17T08:39:42.374Z,43.38
2018-09-17T08:42:11.726Z,42.75
2018-09-17T08:44:40.766Z,43.06
2018-09-17T08:47:10.327Z,42.64
2018-09-17T08:49:39.326Z,43.91
2018-09-17T08:52:08.418Z,43.88
2018-09-17T08:54:42.555Z,43.17
2018-09-17T08:57:16.790Z,44.05
2018-09-17T08:59:50.858Z,42.98
2018-09-17T09:02:25.653Z,43.08
2018-09-17T09:04:55.118Z,42.72
2018-09-17T09:07:29.511Z,41.78
2018-09-17T09:10:03.952Z,41.83
2018-09-17T09:12:38.357Z,41.26
2018-09-17T09:15:12.807Z,41.13
2018-09-17T09:17:41.819Z,40.32
2018-09-17T09:20:10.811Z,41.79
2018-09-17T09:22:40.009Z,41.73
2018-09-17T09:25:09.011Z,40.42
2018-09-17T09:27:38.030Z,41.08
2018-09-17T09:30:06.998Z,41.78
2018-09-17T09:32:36.221Z,40.03
2018-09-17T09:35:05.291Z,39.98
2018-09-17T09:37:34.631Z,41.02
2018-09-17T09:40:03.643Z,39.61
2018-09-17T09:42:32.865Z,40.24
2018-09-17T09:45:02.285Z,39.58
2018-09-17T09:47:31.527Z,39.51
2018-09-17T09:50:00.512Z,40.35
2018-09-17T09:52:29.509Z,39.07
2018-09-17T09:54:59.283Z,39.01
2018-09-17T09:57:28.322Z,39.68
2018-09-17T09:59:57.346Z,38.86
2018-09-17T10:02:35.650Z,39.86
2018-09-17T10:05:05.802Z,39.56
2018-09-17T10:07:35.025Z,40.04
2018-09-17T10:10:09.325Z,40.13
2018-09-17T10:12:43.891Z,39.08
2018-09-17T10:15:19.539Z,39.09
2018-09-17T10:17:53.665Z,38.48
2018-09-17T10:20:22.911Z,38.75
2018-09-17T10:22:51.886Z,39.70
2018-09-17T10:25:20.938Z,38.71
2018-09-17T10:27:50.120Z,38.71
2018-09-17T10:30:19.378Z,38.42
2018-09-17T10:32:48.736Z,37.70
2018-09-17T10:35:17.827Z,36.66
2018-09-17T10:37:47.078Z,36.33
2018-09-17T10:40:16.113Z,37.25
2018-09-17T10:42:45.118Z,36.93
2018-09-17T10:45:14.341Z,37.25
2018-09-17T10:47:43.825Z,37.08
2018-09-17T10:50:12.913Z,36.71
2018-09-17T10:52:42.147Z,36.50
2018-09-17T10:55:11.226Z,35.57
2018-09-17T10:57:40.231Z,35.82
2018-09-17T11:00:09.313Z,36.92
2018-09-17T11:02:38.511Z,35.24
2018-09-17T11:05:07.519Z,35.75
2018-09-17T11:07:36.490Z,35.83
2018-09-17T11:10:06.108Z,36.32
2018-09-17T11:12:35.490Z,35.80
2018-09-17T11:15:05.227Z,34.95
2018-09-17T11:17:34.288Z,34.60
2018-09-17T11:20:03.260Z,35.62
2018-09-17T11:22:32.251Z,34.75
2018-09-17T11:25:01.285Z,35.23
2018-09-17T11:27:30.270Z,34.53
2018-09-17T11:29:59.234Z,35.28
2018-09-17T11:32:28.215Z,35.58
2018-09-17T11:34:57.319Z,34.86
2018-09-17T11:37:26.626Z,34.13
2018-09-17T11:39:55.877Z,34.75
2018-09-17T11:42:24.866Z,35.62
2018-09-17T11:44:53.829Z,34.31
2018-09-17T11:47:22.808Z,34.13
2018-09-17T11:49:51.820Z,33.57
2018-09-17T11:52:20.918Z,33.04
2018-09-17T11:54:49.922Z,33.93
2018-09-17T11:57:18.916Z,33.47
2018-09-17T11:59:47.878Z,32.23
2018-09-17T12:02:22.184Z,32.95
2018-09-17T12:04:58.923Z,32.36
2018-09-17T12:07:33.685Z,33.27
2018-09-17T12:10:03.171Z,32.92
2018-09-17T12:12:32.225Z,32.46
2018-09-17T12:15:01.464Z,31.87
2018-09-17T12:17:30.613Z,31.12
2018-09-17T12:19:59.615Z,32.13
2018-09-17T12:22:28.585Z,31.95
2018-09-17T12:24:57.626Z,31.81
2018-09-17T12:27:26.624Z,31.36
2018-09-17T12:29:55.669Z,31.37
2018-09-17T12:32:24.642Z,31.56
2018-09-17T12:34:53.620Z,31.38
2018-09-17T12:37:22.895Z,32.53
2018-09-17T12:39:51.905Z,30.82
2018-09-17T12:42:20.962Z,30.93
2018-09-17T12:44:50.039Z,30.62
2018-09-17T12:47:19.161Z,31.52
2018-09-17T12:49:48.147Z,30.72
2018-09-17T12:52:17.358Z,30.73
2018-09-17T12:54:46.619Z,30.57
2018-09-17T12:57:15.786Z,31.58
2018-09-17T12:59:45.227Z,31.69
2018-09-17T13:02:14.302Z,31.62
2018-09-17T13:04:43.571Z,30.90
2018-09-17T13:07:12.582Z,31.30
2018-09-17T13:09:41.933Z,31.72
2018-09-17T13:12:11.029Z,31.43
2018-09-17T13:14:40.091Z,31.67
2018-09-17T13:17:09.058Z,31.23
2018-09-17T13:19:38.365Z,31.54
2018-09-17T13:22:07.483Z,31.79
2018-09-17T13:24:36.850Z,31.56
2018-09-17T13:27:05.870Z,30.87
2018-09-17T13:29:35.145Z,31.57
2018-09-17T13:32:04.318Z,30.37
2018-09-17T13:34:33.283Z,31.10
2018-09-17T13:37:02.396Z,30.10
2018-09-17T13:39:31.687Z,30.75
2018-09-17T13:42:00.983Z,30.16
2018-09-17T13:44:30.593Z,30.48
2018-09-17T13:46:59.954Z,30.26
2018-09-17T13:49:28.998Z,30.35
2018-09-17T13:51:58.552Z,31.61
2018-09-17T13:54:27.843Z,31.54
2018-09-17T13:56:57.054Z,30.16
2018-09-17T13:59:26.067Z,30.77
2018-09-17T14:01:55.146Z,30.12
2018-09-17T14:04:24.686Z,29.79
2018-09-17T14:06:53.530Z,31.00
2018-09-17T14:09:22.504Z,30.83
2018-09-17T14:11:51.801Z,29.54
2018-09-17T14:14:20.814Z,30.67
2018-09-17T14:16:50.168Z,29.63
2018-09-17T14:19:19.497Z,29.63
2018-09-17T14:21:48.509Z,29.84
2018-09-17T14:24:17.469Z,30.26
2018-09-17T14:26:46.494Z,29.18
2018-09-17T14:29:16.117Z,30.07
2018-09-17T14:31:50.527Z,30.44
2018-09-17T14:34:19.872Z,30.04
2018-09-17T14:36:49.482Z,30.08
2018-09-17T14:39:18.630Z,29.56
2018-09-17T14:41:47.970Z,29.86
2018-09-17T14:44:17.042Z,29.19
2018-09-17T14:46:46.144Z,30.30
2018-09-17T14:49:15.439Z,29.90
2018-09-17T14:51:45.052Z,29.88
2018-09-17T14:54:14.167Z,29.73
2018-09-17T14:56:43.135Z,28.63
2018-09-17T14:59:12.193Z,29.41
2018-09-17T15:01:41.392Z,28.63
2018-09-17T15:04:10.267Z,28.82
2018-09-17T15:06:39.235Z,29.18
2018-09-17T15:09:09.216Z,29.15
2018-09-17T15:11:38.181Z,28.76
2018-09-17T15:14:07.349Z,29.14
2018-09-17T15:16:36.571Z,28.01
2018-09-17T15:19:06.527Z,28.82
2018-09-17T15:21:35.701Z,28.44
2018-09-17T15:24:05.084Z,28.08
2018-09-17T15:26:34.208Z,28.34
2018-09-17T15:29:03.187Z,27.64
2018-09-17T15:31:32.195Z,27.92
2018-09-17T15:34:01.214Z,29.12
2018-09-17T15:36:30.390Z,28.39
2018-09-17T15:38:59.392Z,28.93
2018-09-17T15:41:28.532Z,29.08
2018-09-17T15:43:57.821Z,28.96
2018-09-17T15:46:27.028Z,28.96
2018-09-17T15:48:56.029Z,29.11
2018-09-17T15:51:25.031Z,29.01
2018-09-17T15:53:54.264Z,29.24
2018-09-17T15:56:25.966Z,28.57
2018-09-17T15:58:58.499Z,29.31
2018-09-17T16:01:27.650Z,28.83
2018-09-17T16:03:57.102Z,29.65
2018-09-17T16:06:26.372Z,28.85
2018-09-17T16:08:55.678Z,28.14
2018-09-17T16:11:24.871Z,29.14
2018-09-17T16:13:53.864Z,29.36
2018-09-17T16:16:22.876Z,29.81
2018-09-17T16:18:51.867Z,28.62
2018-09-17T16:21:20.837Z,29.21
2018-09-17T16:23:49.858Z,29.13
2018-09-17T16:26:19.387Z,28.69
2018-09-17T16:28:48.579Z,29.65
2018-09-17T16:31:17.553Z,29.68
2018-09-17T16:33:46.739Z,30.21
2018-09-17T16:36:15.745Z,28.99
2018-09-17T16:38:44.830Z,29.02
2018-09-17T16:41:14.109Z,30.40
2018-09-17T16:43:43.110Z,30.41
2018-09-17T16:46:12.442Z,29.44
2018-09-17T16:48:41.638Z,29.25
2018-09-17T16:51:12.564Z,29.27
2018-09-17T16:53:41.616Z,30.09
2018-09-17T16:56:10.784Z,29.62
2018-09-17T16:58:40.086Z,29.30
2018-09-17T17:01:09.112Z,29.28
2018-09-17T17:03:38.179Z,29.35
2018-09-17T17:06:07.403Z,30.38
2018-09-17T17:08:36.670Z,31.10
2018-09-17T17:11:06.157Z,30.36
2018-09-17T17:13:35.110Z,30.56
2018-09-17T17:16:04.322Z,31.55
2018-09-17T17:18:33.303Z,30.33
2018-09-17T17:21:02.817Z,31.64
2018-09-17T17:23:32.043Z,32.62
2018-09-17T17:26:01.442Z,32.57
2018-09-17T17:28:30.646Z,33.53
2018-09-17T17:30:59.606Z,33.93
2018-09-17T17:33:28.589Z,32.39
2018-09-17T17:35:57.628Z,32.55
2018-09-17T17:38:26.622Z,33.94
2018-09-17T17:40:55.846Z,34.18
2018-09-17T17:43:25.086Z,34.10
2018-09-17T17:45:54.120Z,34.70
2018-09-17T17:48:23.309Z,34.63
2018-09-17T17:50:52.505Z,35.45
2018-09-17T17:53:24.537Z,35.97
2018-09-17T17:55:53.560Z,36.26
2018-09-17T17:58:25.919Z,36.04
2018-09-17T18:00:54.864Z,35.69
2018-09-17T18:03:23.817Z,36.81
2018-09-17T18:05:52.788Z,36.20
2018-09-17T18:08:21.769Z,36.93
2018-09-17T18:10:50.714Z,37.13
2018-09-17T18:13:21.866Z,37.48
2018-09-17T18:15:50.984Z,36.97
2018-09-17T18:18:21.031Z,37.08
2018-09-17T18:20:51.913Z,38.00
2018-09-17T18:23:23.371Z,37.97
2018-09-17T18:25:53.174Z,38.58
2018-09-17T18:28:22.222Z,38.79
2018-09-17T18:30:51.413Z,39.13
2018-09-17T18:33:21.219Z,39.60
2018-09-17T18:35:50.291Z,39.65
2018-09-17T18:38:19.338Z,40.08
2018-09-17T18:40:48.301Z,40.21
2018-09-17T18:43:17.272Z,39.73
2018-09-17T18:45:46.450Z,40.44
2018-09-17T18:48:17.956Z,40.96
2018-09-17T18:50:48.240Z,40.37
2018-09-17T18:53:17.303Z,41.21
2018-09-17T18:55:46.335Z,40.91
2018-09-17T18:58:15.327Z,41.15
2018-09-17T19:00:44.332Z,41.53
2018-09-17T19:03:23.290Z,42.69
2018-09-17T19:05:52.338Z,42.14
2018-09-17T19:08:21.308Z,42.42
2018-09-17T19:10:50.696Z,42.30
2018-09-17T19:13:19.663Z,42.36
2018-09-17T19:15:55.470Z,43.62
2018-09-17T19:18:24.570Z,43.51
2018-09-17T19:20:54.154Z,43.91
2018-09-17T19:23:28.238Z,43.91
2018-09-17T19:25:57.284Z,43.58
2018-09-17T19:28:31.522Z,44.21
2018-09-17T19:31:00.490Z,43.35
2018-09-17T19:33:29.751Z,44.11
2018-09-17T19:35:58.801Z,44.08
2018-09-17T19:38:33.210Z,43.97
2018-09-17T19:41:02.176Z,43.52
2018-09-17T19:43:31.168Z,43.09
2018-09-17T19:46:05.570Z,43.29
2018-09-17T19:48:34.755Z,44.16
2018-09-17T19:51:09.238Z,43.98
2018-09-17T19:53:38.218Z,44.03
2018-09-17T19:56:07.491Z,43.19
2018-09-17T19:58:41.506Z,43.38
2018-09-17T20:01:10.468Z,44.24
2018-09-17T20:03:39.722Z,44.49
2018-09-17T20:06:15.718Z,44.81
2018-09-17T20:08:44.677Z,44.61
2018-09-17T20:11:13.868Z,44.52
2018-09-17T20:13:42.834Z,43.72
2018-09-17T20:16:11.849Z,44.37
2018-09-17T20:18:40.841Z,44.57
2018-09-17T20:21:10.033Z,44.10
2018-09-17T20:23:39.030Z,44.80
2018-09-17T20:26:08.451Z,45.00
2018-09-17T20:28:37.470Z,45.34
2018-09-17T20:31:06.899Z,45.81
2018-09-17T20:33:36.925Z,45.74
2018-09-17T20:36:06.192Z,45.82
2018-09-17T20:38:35.432Z,45.46
2018-09-17T20:41:04.394Z,45.89
2018-09-17T20:43:33.618Z,45.57
2018-09-17T20:46:02.801Z,46.23
2018-09-17T20:48:31.826Z,46.96
2018-09-17T20:51:00.811Z,46.79
2018-09-17T20:53:29.995Z,47.46
2018-09-17T20:55:59.305Z,47.39
2018-09-17T20:58:30.003Z,47.52
2018-09-17T21:00:59.386Z,47.57
2018-09-17T21:03:28.313Z,47.42
2018-09-17T21:05:57.511Z,47.77
2018-09-17T21:08:26.685Z,48.02
2018-09-17T21:10:55.875Z,47.59
2018-09-17T21:13:24.872Z,47.38
2018-09-17T21:15:53.824Z,46.85
2018-09-17T21:18:22.892Z,47.42
2018-09-17T21:20:53.425Z,46.90
2018-09-17T21:23:23.089Z,47.50
2018-09-17T21:25:52.049Z,47.94
2018-09-17T21:28:21.244Z,47.39
2018-09-17T21:30:50.280Z,46.53
2018-09-17T21:33:19.792Z,47.34
2018-09-17T21:35:49.106Z,46.70
2018-09-17T21:38:18.062Z,46.46
2018-09-17T21:40:47.341Z,46.28
2018-09-17T21:43:16.335Z,46.84
2018-09-17T21:45:45.313Z,46.80
2018-09-17T21:48:14.316Z,46.94
2018-09-17T21:50:43.759Z,46.73
2018-09-17T21:53:12.946Z,46.94
2018-09-17T21:55:43.479Z,46.67
2018-09-17T21:58:12.649Z,46.58
2018-09-17T22:01:17.590Z,46.18
2018-09-17T22:03:47.127Z,46.55
2018-09-17T22:06:16.528Z,46.42
2018-09-17T22:08:45.697Z,46.12
2018-09-17T22:11:14.705Z,46.32
2018-09-17T22:13:43.866Z,45.91
2018-09-17T22:16:13.283Z,46.21
2018-09-17T22:18:42.467Z,45.96
2018-09-17T22:21:11.446Z,46.47
2018-09-17T22:23:40.622Z,45.89
2018-09-17T22:26:10.232Z,46.13
2018-09-17T22:28:39.422Z,46.90
2018-09-17T22:31:08.390Z,46.60
2018-09-17T22:33:37.379Z,47.18
2018-09-17T22:36:06.395Z,46.93
2018-09-17T22:38:35.696Z,47.36
2018-09-17T22:41:04.958Z,46.59
2018-09-17T22:43:35.402Z,46.94
2018-09-17T22:46:05.303Z,46.98
2018-09-17T22:48:35.641Z,46.85
2018-09-17T22:51:05.680Z,46.15
2018-09-17T22:53:35.035Z,47.07
2018-09-17T22:56:05.872Z,46.51
2018-09-17T22:58:34.868Z,46.49
2018-09-17T23:01:03.822Z,46.98
2018-09-17T23:03:32.891Z,47.61
2018-09-17T23:06:01.844Z,47.68
2018-09-17T23:08:30.873Z,47.99
2018-09-17T23:10:59.906Z,48.15
2018-09-17T23:13:28.922Z,48.00
2018-09-17T23:15:57.923Z,47.98
2018-09-17T23:18:27.111Z,48.48
2018-09-17T23:20:56.095Z,47.98
2018-09-17T23:23:25.290Z,47.62
2018-09-17T23:25:54.267Z,47.72
2018-09-17T23:28:23.542Z,48.69
2018-09-17T23:30:54.361Z,47.91
2018-09-17T23:33:23.602Z,47.79
2018-09-17T23:35:52.781Z,47.59
2018-09-17T23:38:22.203Z,48.46
2018-09-17T23:40:51.214Z,48.73
2018-09-17T23:43:20.207Z,48.20
2018-09-17T23:45:49.224Z,48.60
2018-09-17T23:48:18.426Z,47.92
2018-09-17T23:50:47.388Z,48.92
2018-09-17T23:53:16.924Z,48.30
2018-09-17T23:55:46.115Z,47.89
2018-09-17T23:58:15.324Z,48.58
